createdAt,value
2023-05-03T00:01:10.134Z,3.05
2023-05-03T00:03:37.880Z,3.08
2023-05-03T00:06:14.776Z,2.92
2023-05-03T00:08:41.926Z,2.85
2023-05-03T00:11:09.151Z,2.97
2023-05-03T00:13:36.081Z,2.95
2023-05-03T00:16:02.793Z,2.92
2023-05-03T00:18:30.754Z,2.90
2023-05-03T00:21:01.873Z,2.83
2023-05-03T00:23:28.891Z,2.70
2023-05-03T00:25:57.250Z,3.17
2023-05-03T00:28:25.565Z,2.75
2023-05-03T00:30:53.316Z,2.80
2023-05-03T00:33:20.080Z,2.80
2023-05-03T00:35:46.838Z,2.70
2023-05-03T00:38:17.409Z,2.90
2023-05-03T00:40:44.188Z,2.75
2023-05-03T00:43:13.903Z,2.80
2023-05-03T00:45:40.772Z,2.80
2023-05-03T00:48:07.530Z,2.80
2023-05-03T00:50:36.208Z,2.83
2023-05-03T00:53:03.186Z,3.17
2023-05-03T00:55:31.707Z,2.97
2023-05-03T00:57:58.386Z,3.22
2023-05-03T01:00:25.612Z,3.00
2023-05-03T01:02:52.431Z,3.20
2023-05-03T01:05:19.932Z,2.80
2023-05-03T01:08:00.797Z,3.10
2023-05-03T01:10:47.076Z,2.95
2023-05-03T01:13:18.836Z,3.10
2023-05-03T01:15:57.518Z,3.13
2023-05-03T01:18:30.500Z,3.05
2023-05-03T01:21:02.704Z,2.75
2023-05-03T01:23:36.453Z,3.08
2023-05-03T01:26:18.412Z,2.80
2023-05-03T01:28:45.044Z,3.00
2023-05-03T01:31:14.479Z,3.13
2023-05-03T01:33:47.625Z,2.83
2023-05-03T01:36:32.588Z,2.80
2023-05-03T01:39:08.601Z,3.25
2023-05-03T01:41:37.344Z,2.95
2023-05-03T01:44:05.324Z,2.85
2023-05-03T01:46:32.109Z,2.88
2023-05-03T01:48:58.793Z,2.85
2023-05-03T01:51:25.889Z,2.90
2023-05-03T01:53:52.491Z,2.78
2023-05-03T01:56:19.075Z,3.10
2023-05-03T01:58:45.727Z,2.85
2023-05-03T02:01:12.471Z,2.95
2023-05-03T02:03:39.243Z,3.17
2023-05-03T02:06:06.018Z,3.05
2023-05-03T02:08:32.668Z,3.15
2023-05-03T02:10:59.338Z,2.80
2023-05-03T02:13:25.931Z,2.90
2023-05-03T02:15:52.624Z,2.90
2023-05-03T02:18:20.308Z,2.78
2023-05-03T02:20:47.070Z,3.00
2023-05-03T02:23:14.349Z,2.70
2023-05-03T02:25:41.961Z,2.70
2023-05-03T02:28:08.612Z,3.13
2023-05-03T02:30:35.949Z,3.03
2023-05-03T02:33:02.825Z,3.17
2023-05-03T02:35:29.514Z,3.00
2023-05-03T02:37:57.002Z,3.13
2023-05-03T02:40:23.603Z,3.20
2023-05-03T02:42:50.201Z,2.90
2023-05-03T02:45:16.909Z,2.90
2023-05-03T02:47:43.582Z,3.13
2023-05-03T02:50:10.339Z,3.15
2023-05-03T02:52:36.983Z,3.03
2023-05-03T02:55:03.703Z,3.10
2023-05-03T02:57:30.340Z,3.40
2023-05-03T02:59:57.089Z,3.10
2023-05-03T03:02:23.831Z,3.15
2023-05-03T03:04:50.690Z,3.38
2023-05-03T03:07:19.612Z,3.42
2023-05-03T03:09:46.302Z,3.50
2023-05-03T03:12:13.089Z,3.38
2023-05-03T03:14:39.768Z,3.35
2023-05-03T03:17:09.470Z,3.30
2023-05-03T03:19:36.339Z,3.58
2023-05-03T03:22:03.237Z,3.38
2023-05-03T03:24:29.945Z,3.75
2023-05-03T03:26:56.793Z,3.30
2023-05-03T03:29:23.446Z,3.47
2023-05-03T03:31:50.186Z,3.42
2023-05-03T03:34:21.829Z,3.42
2023-05-03T03:36:48.512Z,3.75
2023-05-03T03:39:15.190Z,3.47
2023-05-03T03:41:42.424Z,3.90
2023-05-03T03:44:09.155Z,3.47
2023-05-03T03:46:35.893Z,3.67
2023-05-03T03:49:02.746Z,3.40
2023-05-03T03:51:29.533Z,3.40
2023-05-03T03:53:56.144Z,3.72
2023-05-03T03:56:23.832Z,3.97
2023-05-03T03:58:50.637Z,3.88
2023-05-03T04:01:17.247Z,3.72
2023-05-03T04:03:47.707Z,3.70
2023-05-03T04:06:14.647Z,3.80
2023-05-03T04:08:41.342Z,3.83
2023-05-03T04:11:12.474Z,4.07
2023-05-03T04:13:40.428Z,4.00
2023-05-03T04:16:08.111Z,4.13
2023-05-03T04:18:37.552Z,4.35
2023-05-03T04:21:04.348Z,3.92
2023-05-03T04:23:32.174Z,4.40
2023-05-03T04:25:58.766Z,4.78
2023-05-03T04:28:26.990Z,4.38
2023-05-03T04:30:54.204Z,4.00
2023-05-03T04:33:22.092Z,3.80
2023-05-03T04:35:52.734Z,4.53
2023-05-03T04:38:20.112Z,3.70
2023-05-03T04:40:46.802Z,3.67
2023-05-03T04:43:13.767Z,3.75
2023-05-03T04:45:41.080Z,3.85
2023-05-03T04:48:08.168Z,4.03
2023-05-03T04:50:34.838Z,4.20
2023-05-03T04:53:01.749Z,3.65
2023-05-03T04:55:29.561Z,3.55
2023-05-03T04:57:56.718Z,3.65
2023-05-03T05:00:23.717Z,3.85
2023-05-03T05:02:51.156Z,4.20
2023-05-03T05:05:19.554Z,3.22
2023-05-03T05:07:46.927Z,4.20
2023-05-03T05:10:15.049Z,4.60
2023-05-03T05:12:41.922Z,3.42
2023-05-03T05:15:09.256Z,3.92
2023-05-03T05:17:37.135Z,3.85
2023-05-03T05:20:08.291Z,3.70
2023-05-03T05:22:35.000Z,3.60
2023-05-03T05:25:07.625Z,3.83
2023-05-03T05:27:35.363Z,4.18
2023-05-03T05:30:02.486Z,3.72
2023-05-03T05:32:31.874Z,3.90
2023-05-03T05:34:58.468Z,4.00
2023-05-03T05:37:26.159Z,4.47
2023-05-03T05:39:53.647Z,6.07
2023-05-03T05:42:20.946Z,5.20
2023-05-03T05:44:47.616Z,4.75
2023-05-03T05:47:14.314Z,4.78
2023-05-03T05:49:44.902Z,4.40
2023-05-03T05:52:11.832Z,4.15
2023-05-03T05:54:38.577Z,3.95
2023-05-03T05:57:05.359Z,3.58
2023-05-03T05:59:32.018Z,3.90
2023-05-03T06:02:00.344Z,3.88
2023-05-03T06:04:28.416Z,3.08
2023-05-03T06:06:58.077Z,3.83
2023-05-03T06:09:25.362Z,3.40
2023-05-03T06:11:52.842Z,3.30
2023-05-03T06:14:20.715Z,3.00
2023-05-03T06:16:47.677Z,3.50
2023-05-03T06:19:17.062Z,3.80
2023-05-03T06:21:43.699Z,3.47
2023-05-03T06:24:10.322Z,3.03
2023-05-03T06:26:36.950Z,3.20
2023-05-03T06:29:05.000Z,3.60
2023-05-03T06:31:34.375Z,3.63
2023-05-03T06:34:01.040Z,4.00
2023-05-03T06:36:29.925Z,5.20
2023-05-03T06:38:57.086Z,4.70
2023-05-03T06:41:24.374Z,5.72
2023-05-03T06:43:51.142Z,6.75
2023-05-03T06:46:20.132Z,5.65
2023-05-03T06:48:47.028Z,3.75
2023-05-03T06:51:13.676Z,6.30
2023-05-03T06:53:41.341Z,4.15
2023-05-03T06:56:08.010Z,3.72
2023-05-03T06:58:34.667Z,3.97
2023-05-03T07:01:02.146Z,3.88
2023-05-03T07:03:28.815Z,3.75
2023-05-03T07:05:55.515Z,3.67
2023-05-03T07:08:22.258Z,3.65
2023-05-03T07:10:48.902Z,3.38
2023-05-03T07:13:15.542Z,3.75
2023-05-03T07:15:42.308Z,3.28
2023-05-03T07:18:09.098Z,3.88
2023-05-03T07:20:35.842Z,3.28
2023-05-03T07:23:03.123Z,3.83
2023-05-03T07:25:33.581Z,3.63
2023-05-03T07:28:00.452Z,3.55
2023-05-03T07:30:29.279Z,3.80
2023-05-03T07:32:56.036Z,3.23
2023-05-03T07:35:27.169Z,3.30
2023-05-03T07:37:53.908Z,3.45
2023-05-03T07:40:20.696Z,3.33
2023-05-03T07:42:47.366Z,3.33
2023-05-03T07:45:14.794Z,3.55
2023-05-03T07:47:41.610Z,3.38
2023-05-03T07:50:08.363Z,3.30
2023-05-03T07:52:41.981Z,3.50
2023-05-03T07:55:08.983Z,3.28
2023-05-03T07:57:36.997Z,3.50
2023-05-03T08:00:06.314Z,3.30
2023-05-03T08:02:33.118Z,3.42
2023-05-03T08:05:02.254Z,3.50
2023-05-03T08:07:30.478Z,3.17
2023-05-03T08:09:58.661Z,3.45
2023-05-03T08:12:26.212Z,3.40
2023-05-03T08:14:54.290Z,3.35
2023-05-03T08:17:21.837Z,3.10
2023-05-03T08:19:49.147Z,3.78
2023-05-03T08:22:16.502Z,3.47
2023-05-03T08:24:43.547Z,3.10
2023-05-03T08:27:12.884Z,3.30
2023-05-03T08:29:42.032Z,3.25
2023-05-03T08:32:08.719Z,3.30
2023-05-03T08:34:35.375Z,3.00
2023-05-03T08:37:03.041Z,3.35
2023-05-03T08:39:32.395Z,2.90
2023-05-03T08:42:00.571Z,3.33
2023-05-03T08:44:29.633Z,3.03
2023-05-03T08:46:56.409Z,3.42
2023-05-03T08:49:24.407Z,3.20
2023-05-03T08:51:52.842Z,3.40
2023-05-03T08:54:21.235Z,3.38
2023-05-03T08:56:48.754Z,3.47
2023-05-03T08:59:17.736Z,3.42
2023-05-03T09:01:44.651Z,3.50
2023-05-03T09:04:12.016Z,3.80
2023-05-03T09:06:39.293Z,3.40
2023-05-03T09:09:08.388Z,3.55
2023-05-03T09:11:37.244Z,3.42
2023-05-03T09:14:13.132Z,3.63
2023-05-03T09:16:41.175Z,3.30
2023-05-03T09:19:12.969Z,3.75
2023-05-03T09:21:48.625Z,3.35
2023-05-03T09:24:20.761Z,3.55
2023-05-03T09:26:52.041Z,3.60
2023-05-03T09:29:33.175Z,3.38
2023-05-03T09:32:06.062Z,4.15
2023-05-03T09:34:34.394Z,4.43
2023-05-03T09:37:01.651Z,3.17
2023-05-03T09:39:28.360Z,3.17
2023-05-03T09:41:55.129Z,3.05
2023-05-03T09:44:41.566Z,3.15
2023-05-03T09:47:08.670Z,3.30
2023-05-03T09:49:39.457Z,3.25
2023-05-03T09:52:07.289Z,3.25
2023-05-03T09:54:45.683Z,3.88
2023-05-03T09:57:14.699Z,3.38
2023-05-03T09:59:42.348Z,3.20
2023-05-03T10:02:09.238Z,3.40
2023-05-03T10:04:44.724Z,4.15
2023-05-03T10:07:20.817Z,3.53
2023-05-03T10:09:48.570Z,3.85
2023-05-03T10:12:20.270Z,4.50
2023-05-03T10:14:48.487Z,4.88
2023-05-03T10:17:46.982Z,3.95
2023-05-03T10:20:27.526Z,3.47
2023-05-03T10:23:06.691Z,3.40
2023-05-03T10:25:36.761Z,3.42
2023-05-03T10:28:04.630Z,3.47
2023-05-03T10:30:34.668Z,3.38
2023-05-03T10:33:13.411Z,3.50
2023-05-03T10:35:41.991Z,4.10
2023-05-03T10:38:21.324Z,3.30
2023-05-03T10:40:48.246Z,3.15
2023-05-03T10:43:30.146Z,3.88
2023-05-03T10:46:01.062Z,3.30
2023-05-03T10:48:29.418Z,3.10
2023-05-03T10:50:56.979Z,2.80
2023-05-03T10:53:40.678Z,3.42
2023-05-03T10:56:15.692Z,3.15
2023-05-03T10:58:47.788Z,3.03
2023-05-03T11:01:20.362Z,3.30
2023-05-03T11:04:00.005Z,2.90
2023-05-03T11:06:35.178Z,2.70
2023-05-03T11:09:04.328Z,2.97
2023-05-03T11:11:31.672Z,2.80
2023-05-03T11:13:59.534Z,2.90
2023-05-03T11:16:26.644Z,3.22
2023-05-03T11:18:54.286Z,2.97
2023-05-03T11:21:21.340Z,2.70
2023-05-03T11:23:48.056Z,3.08
2023-05-03T11:26:15.061Z,3.17
2023-05-03T11:28:42.904Z,2.60
2023-05-03T11:31:10.403Z,2.90
2023-05-03T11:33:38.480Z,2.70
2023-05-03T11:36:08.244Z,2.85
2023-05-03T11:38:36.328Z,2.70
2023-05-03T11:41:16.601Z,3.40
2023-05-03T11:43:45.445Z,3.03
2023-05-03T11:46:15.542Z,2.85
2023-05-03T11:48:46.678Z,3.28
2023-05-03T11:51:14.014Z,3.13
2023-05-03T11:53:42.927Z,2.72
2023-05-03T11:56:14.149Z,2.80
2023-05-03T11:58:57.429Z,3.20
2023-05-03T12:01:28.902Z,2.95
2023-05-03T12:04:04.124Z,2.97
2023-05-03T12:06:35.925Z,2.85
2023-05-03T12:09:04.471Z,2.80
2023-05-03T12:11:42.964Z,2.90
2023-05-03T12:14:11.141Z,3.08
2023-05-03T12:16:52.826Z,3.20
2023-05-03T12:19:33.342Z,2.60
2023-05-03T12:22:23.551Z,2.90
2023-05-03T12:24:53.737Z,3.35
2023-05-03T12:27:24.073Z,3.92
2023-05-03T12:29:51.893Z,3.30
2023-05-03T12:32:18.662Z,3.15
2023-05-03T12:34:47.513Z,3.50
2023-05-03T12:37:22.181Z,3.63
2023-05-03T12:39:58.513Z,2.90
2023-05-03T12:42:36.329Z,3.15
2023-05-03T12:45:05.026Z,3.30
2023-05-03T12:47:35.990Z,3.13
2023-05-03T12:50:06.295Z,3.38
2023-05-03T12:52:37.923Z,3.10
2023-05-03T12:55:11.068Z,3.00
2023-05-03T12:57:42.073Z,3.15
2023-05-03T13:00:15.022Z,4.10
2023-05-03T13:03:19.856Z,3.08
2023-05-03T13:05:35.247Z,3.42
2023-05-03T13:08:08.921Z,3.15
2023-05-03T13:10:39.083Z,2.60
2023-05-03T13:13:06.902Z,2.70
2023-05-03T13:15:35.828Z,2.58
2023-05-03T13:18:05.004Z,2.90
2023-05-03T13:20:32.476Z,2.63
2023-05-03T13:22:59.664Z,2.50
2023-05-03T13:25:26.673Z,3.08
2023-05-03T13:27:53.389Z,3.15
2023-05-03T13:30:23.444Z,2.70
2023-05-03T13:32:53.031Z,3.28
2023-05-03T13:35:20.219Z,2.78
2023-05-03T13:37:46.889Z,2.75
2023-05-03T13:40:14.794Z,3.00
2023-05-03T13:42:41.497Z,3.35
2023-05-03T13:45:09.114Z,3.20
2023-05-03T13:47:59.570Z,3.15
2023-05-03T13:50:23.990Z,3.08
2023-05-03T13:52:50.692Z,2.80
2023-05-03T13:55:17.350Z,2.80
2023-05-03T13:57:44.543Z,2.70
2023-05-03T14:00:12.259Z,3.00
2023-05-03T14:02:39.039Z,3.10
2023-05-03T14:05:06.856Z,3.20
2023-05-03T14:07:33.494Z,3.10
2023-05-03T14:10:00.371Z,2.65
2023-05-03T14:12:27.398Z,3.28
2023-05-03T14:14:54.298Z,3.63
2023-05-03T14:17:21.697Z,3.15
2023-05-03T14:19:48.589Z,3.30
2023-05-03T14:22:15.310Z,2.95
2023-05-03T14:24:44.341Z,3.10
2023-05-03T14:27:11.004Z,3.35
2023-05-03T14:29:37.725Z,6.88
2023-05-03T14:32:05.609Z,8.90
2023-05-03T14:34:32.322Z,12.00
2023-05-03T14:36:59.008Z,12.38
2023-05-03T14:39:25.936Z,9.50
2023-05-03T14:41:53.076Z,7.47
2023-05-03T14:44:21.073Z,7.75
2023-05-03T14:46:48.609Z,7.40
2023-05-03T14:49:17.546Z,5.80
2023-05-03T14:51:44.576Z,6.25
2023-05-03T14:54:12.477Z,6.13
2023-05-03T14:56:39.390Z,6.72
2023-05-03T14:59:07.111Z,5.75
2023-05-03T15:01:33.796Z,5.00
2023-05-03T15:04:00.449Z,5.20
2023-05-03T15:06:32.431Z,4.78
2023-05-03T15:08:59.616Z,4.68
2023-05-03T15:11:27.839Z,3.70
2023-05-03T15:13:55.588Z,3.03
2023-05-03T15:16:22.381Z,3.45
2023-05-03T15:18:49.611Z,2.80
2023-05-03T15:21:19.294Z,3.22
2023-05-03T15:23:49.978Z,2.92
2023-05-03T15:26:16.757Z,3.55
2023-05-03T15:28:43.563Z,3.20
2023-05-03T15:31:18.821Z,2.95
2023-05-03T15:33:46.005Z,3.38
2023-05-03T15:36:13.687Z,3.13
2023-05-03T15:38:42.844Z,3.00
2023-05-03T15:41:09.522Z,3.20
2023-05-03T15:43:36.114Z,2.95
2023-05-03T15:46:02.909Z,2.80
2023-05-03T15:48:29.678Z,3.28
2023-05-03T15:50:56.299Z,3.03
2023-05-03T15:53:23.077Z,3.22
2023-05-03T15:55:49.817Z,3.28
2023-05-03T15:58:18.209Z,3.72
2023-05-03T16:00:44.851Z,3.28
2023-05-03T16:03:12.248Z,3.00
2023-05-03T16:05:39.743Z,3.30
2023-05-03T16:08:08.239Z,3.53
2023-05-03T16:10:35.478Z,3.10
2023-05-03T16:13:03.663Z,3.10
2023-05-03T16:15:31.192Z,3.47
2023-05-03T16:17:59.343Z,3.25
2023-05-03T16:20:26.116Z,3.67
2023-05-03T16:22:53.118Z,3.28
2023-05-03T16:25:19.932Z,3.22
2023-05-03T16:27:46.622Z,3.67
2023-05-03T16:30:13.701Z,3.47
2023-05-03T16:32:40.548Z,3.60
2023-05-03T16:35:07.383Z,3.63
2023-05-03T16:37:37.208Z,4.13
2023-05-03T16:40:14.569Z,3.22
2023-05-03T16:42:42.702Z,3.55
2023-05-03T16:45:10.907Z,3.47
2023-05-03T16:47:38.235Z,3.67
2023-05-03T16:50:08.752Z,4.10
2023-05-03T16:52:40.310Z,3.88
2023-05-03T16:55:07.943Z,4.32
2023-05-03T16:57:34.570Z,4.10
2023-05-03T17:00:08.383Z,3.95
2023-05-03T17:02:39.682Z,4.28
2023-05-03T17:05:12.741Z,4.63
2023-05-03T17:07:41.962Z,4.05
2023-05-03T17:10:09.274Z,3.80
2023-05-03T17:12:36.112Z,5.13
2023-05-03T17:15:06.710Z,5.25
2023-05-03T17:17:33.479Z,5.10
2023-05-03T17:20:00.213Z,5.82
2023-05-03T17:22:27.251Z,5.53
2023-05-03T17:24:55.282Z,6.53
2023-05-03T17:27:22.065Z,6.90
2023-05-03T17:29:52.201Z,11.60
2023-05-03T17:32:19.127Z,7.10
2023-05-03T17:34:45.928Z,6.30
2023-05-03T17:37:12.595Z,6.63
2023-05-03T17:39:39.545Z,6.50
2023-05-03T17:42:06.442Z,5.63
2023-05-03T17:44:33.275Z,4.97
2023-05-03T17:47:00.722Z,6.10
2023-05-03T17:49:27.359Z,7.65
2023-05-03T17:51:57.303Z,5.65
2023-05-03T17:54:24.483Z,5.75
2023-05-03T17:56:51.073Z,5.60
2023-05-03T17:59:18.830Z,5.28
2023-05-03T18:01:47.825Z,6.38
2023-05-03T18:04:15.129Z,5.15
2023-05-03T18:06:41.733Z,5.40
2023-05-03T18:09:08.518Z,4.72
2023-05-03T18:11:35.186Z,4.80
2023-05-03T18:14:01.774Z,4.85
2023-05-03T18:16:30.844Z,4.70
2023-05-03T18:18:58.797Z,4.65
2023-05-03T18:21:27.636Z,4.35
2023-05-03T18:23:54.254Z,4.40
2023-05-03T18:26:20.867Z,4.10
2023-05-03T18:28:47.455Z,4.82
2023-05-03T18:31:14.125Z,4.97
2023-05-03T18:33:42.816Z,5.43
2023-05-03T18:36:13.854Z,5.90
2023-05-03T18:38:42.027Z,5.07
2023-05-03T18:41:16.621Z,4.45
2023-05-03T18:43:44.735Z,4.13
2023-05-03T18:46:16.339Z,4.55
2023-05-03T18:48:43.220Z,4.22
2023-05-03T18:51:10.939Z,3.70
2023-05-03T18:53:37.581Z,4.28
2023-05-03T18:56:04.769Z,3.85
2023-05-03T18:58:32.168Z,4.10
2023-05-03T19:01:00.148Z,5.35
2023-05-03T19:03:29.866Z,5.68
2023-05-03T19:06:04.228Z,6.32
2023-05-03T19:08:31.627Z,5.65
2023-05-03T19:11:07.536Z,5.63
2023-05-03T19:13:34.120Z,5.60
2023-05-03T19:16:00.829Z,5.57
2023-05-03T19:18:27.456Z,5.50
2023-05-03T19:20:55.118Z,5.05
2023-05-03T19:23:21.696Z,4.68
2023-05-03T19:25:48.440Z,4.75
2023-05-03T19:28:15.669Z,4.80
2023-05-03T19:30:45.530Z,3.97
2023-05-03T19:33:12.216Z,4.40
2023-05-03T19:35:39.961Z,4.72
2023-05-03T19:38:07.252Z,4.43
2023-05-03T19:40:34.147Z,4.78
2023-05-03T19:43:02.176Z,5.03
2023-05-03T19:45:28.859Z,4.65
2023-05-03T19:47:55.535Z,4.75
2023-05-03T19:50:22.216Z,5.05
2023-05-03T19:52:54.689Z,5.03
2023-05-03T19:55:22.013Z,5.28
2023-05-03T19:57:49.096Z,5.80
2023-05-03T20:00:19.534Z,5.90
2023-05-03T20:02:46.210Z,6.00
2023-05-03T20:05:12.897Z,6.70
2023-05-03T20:07:40.485Z,6.40
2023-05-03T20:10:07.545Z,6.35
2023-05-03T20:12:34.354Z,6.55
2023-05-03T20:15:01.161Z,6.70
2023-05-03T20:17:28.107Z,6.75
2023-05-03T20:19:54.812Z,7.25
2023-05-03T20:22:21.656Z,6.97
2023-05-03T20:24:52.429Z,6.65
2023-05-03T20:27:19.838Z,7.35
2023-05-03T20:29:46.552Z,8.20
2023-05-03T20:32:13.309Z,7.80
2023-05-03T20:34:40.383Z,8.15
2023-05-03T20:37:07.252Z,8.43
2023-05-03T20:39:35.319Z,7.95
2023-05-03T20:42:02.451Z,8.30
2023-05-03T20:44:29.916Z,8.50
2023-05-03T20:46:56.520Z,9.13
2023-05-03T20:49:23.108Z,10.30
2023-05-03T20:51:49.845Z,9.85
2023-05-03T20:54:16.919Z,10.45
2023-05-03T20:56:43.581Z,11.77
2023-05-03T20:59:10.397Z,11.93
2023-05-03T21:01:41.123Z,13.27
2023-05-03T21:04:08.344Z,13.68
2023-05-03T21:06:38.111Z,13.75
2023-05-03T21:09:05.069Z,14.23
2023-05-03T21:11:31.915Z,15.15
2023-05-03T21:14:00.314Z,15.90
2023-05-03T21:18:55.962Z,15.52
2023-05-03T21:21:22.666Z,16.55
2023-05-03T21:23:49.334Z,15.57
2023-05-03T21:26:16.637Z,17.20
2023-05-03T21:28:43.276Z,15.38
2023-05-03T21:31:11.092Z,16.00
2023-05-03T21:33:37.817Z,13.90
2023-05-03T21:36:04.695Z,14.43
2023-05-03T21:38:31.848Z,16.80
2023-05-03T21:41:07.447Z,16.63
2023-05-03T21:43:38.650Z,16.30
2023-05-03T21:46:08.646Z,15.45
2023-05-03T21:48:39.277Z,16.48
2023-05-03T21:51:05.922Z,16.15
2023-05-03T21:53:33.448Z,15.68
2023-05-03T21:56:00.191Z,15.90
2023-05-03T21:58:26.887Z,16.05
2023-05-03T22:00:53.625Z,15.35
2023-05-03T22:03:20.359Z,16.10
2023-05-03T22:05:48.767Z,15.32
2023-05-03T22:08:18.086Z,15.93
2023-05-03T22:10:45.961Z,15.55
2023-05-03T22:13:13.100Z,15.55
2023-05-03T22:15:40.246Z,15.40
2023-05-03T22:18:07.041Z,16.67
2023-05-03T22:20:33.683Z,16.38
2023-05-03T22:23:00.412Z,15.40
2023-05-03T22:25:30.026Z,16.05
2023-05-03T22:27:58.121Z,14.48
2023-05-03T22:30:24.972Z,15.20
2023-05-03T22:32:51.935Z,15.35
2023-05-03T22:35:18.600Z,15.98
2023-05-03T22:37:45.348Z,15.70
2023-05-03T22:40:12.132Z,15.43
2023-05-03T22:42:39.298Z,16.00
2023-05-03T22:45:06.821Z,15.77
2023-05-03T22:47:33.529Z,14.27
2023-05-03T22:50:00.352Z,15.50
2023-05-03T22:52:27.761Z,14.85
2023-05-03T22:54:57.428Z,15.75
2023-05-03T22:57:24.154Z,16.27
2023-05-03T22:59:50.898Z,16.35
2023-05-03T23:02:17.802Z,16.10
2023-05-03T23:04:44.795Z,16.08
2023-05-03T23:07:11.499Z,16.33
2023-05-03T23:09:40.798Z,17.33
2023-05-03T23:12:07.488Z,16.27
2023-05-03T23:14:34.609Z,16.73
2023-05-03T23:17:01.465Z,17.92
2023-05-03T23:19:28.124Z,17.52
2023-05-03T23:21:54.835Z,17.38
2023-05-03T23:24:21.677Z,17.05
2023-05-03T23:26:48.343Z,16.50
2023-05-03T23:29:15.322Z,17.13
2023-05-03T23:31:42.643Z,15.80
2023-05-03T23:34:09.773Z,17.30
2023-05-03T23:36:36.430Z,17.23
2023-05-03T23:39:03.793Z,15.98
2023-05-03T23:41:30.877Z,15.05
2023-05-03T23:43:57.455Z,15.93
2023-05-03T23:46:24.078Z,15.25
2023-05-03T23:48:50.733Z,16.98
2023-05-03T23:51:17.327Z,16.38
2023-05-03T23:53:43.912Z,16.70
2023-05-03T23:56:12.582Z,16.67
2023-05-03T23:58:39.154Z,16.92
